sensor_id;sensor_type;location;lat;lon;timestamp;temperature;humidity
68439;SHT31;55421;51.600;5.718;2023-03-04T00:01:12;6.38;70.38
68439;SHT31;55421;51.600;5.718;2023-03-04T00:03:39;6.37;70.40
68439;SHT31;55421;51.600;5.718;2023-03-04T00:06:06;6.35;70.43
68439;SHT31;55421;51.600;5.718;2023-03-04T00:08:32;6.33;70.49
68439;SHT31;55421;51.600;5.718;2023-03-04T00:11:00;6.31;70.42
68439;SHT31;55421;51.600;5.718;2023-03-04T00:13:26;6.31;70.39
68439;SHT31;55421;51.600;5.718;2023-03-04T00:15:54;6.32;70.24
68439;SHT31;55421;51.600;5.718;2023-03-04T00:18:21;6.35;70.20
68439;SHT31;55421;51.600;5.718;2023-03-04T00:20:47;6.38;70.16
68439;SHT31;55421;51.600;5.718;2023-03-04T00:23:15;6.37;70.02
68439;SHT31;55421;51.600;5.718;2023-03-04T00:25:45;6.36;69.95
68439;SHT31;55421;51.600;5.718;2023-03-04T00:28:11;6.33;69.94
68439;SHT31;55421;51.600;5.718;2023-03-04T00:30:38;6.32;70.00
68439;SHT31;55421;51.600;5.718;2023-03-04T00:33:04;6.31;70.06
68439;SHT31;55421;51.600;5.718;2023-03-04T00:35:31;6.30;70.10
68439;SHT31;55421;51.600;5.718;2023-03-04T00:37:57;6.31;70.17
68439;SHT31;55421;51.600;5.718;2023-03-04T00:40:24;6.34;70.24
68439;SHT31;55421;51.600;5.718;2023-03-04T00:42:50;6.38;70.33
68439;SHT31;55421;51.600;5.718;2023-03-04T00:45:17;6.40;70.40
68439;SHT31;55421;51.600;5.718;2023-03-04T00:47:43;6.42;70.42
68439;SHT31;55421;51.600;5.718;2023-03-04T00:50:10;6.43;70.55
68439;SHT31;55421;51.600;5.718;2023-03-04T00:52:37;6.43;70.60
68439;SHT31;55421;51.600;5.718;2023-03-04T00:55:03;6.43;70.67
68439;SHT31;55421;51.600;5.718;2023-03-04T00:57:31;6.40;70.68
68439;SHT31;55421;51.600;5.718;2023-03-04T00:59:57;6.39;70.70
68439;SHT31;55421;51.600;5.718;2023-03-04T01:02:24;6.38;70.80
68439;SHT31;55421;51.600;5.718;2023-03-04T01:04:51;6.36;70.84
68439;SHT31;55421;51.600;5.718;2023-03-04T01:07:17;6.34;70.93
68439;SHT31;55421;51.600;5.718;2023-03-04T01:09:44;6.36;71.00
68439;SHT31;55421;51.600;5.718;2023-03-04T01:12:11;6.39;70.99
68439;SHT31;55421;51.600;5.718;2023-03-04T01:14:37;6.40;70.98
68439;SHT31;55421;51.600;5.718;2023-03-04T01:17:04;6.40;70.99
68439;SHT31;55421;51.600;5.718;2023-03-04T01:19:30;6.39;70.92
68439;SHT31;55421;51.600;5.718;2023-03-04T01:21:57;6.38;70.90
68439;SHT31;55421;51.600;5.718;2023-03-04T01:24:23;6.35;70.91
68439;SHT31;55421;51.600;5.718;2023-03-04T01:26:50;6.33;70.99
68439;SHT31;55421;51.600;5.718;2023-03-04T01:29:16;6.32;71.02
68439;SHT31;55421;51.600;5.718;2023-03-04T01:31:43;6.33;70.99
68439;SHT31;55421;51.600;5.718;2023-03-04T01:34:09;6.35;70.91
68439;SHT31;55421;51.600;5.718;2023-03-04T01:36:36;6.34;70.84
68439;SHT31;55421;51.600;5.718;2023-03-04T01:39:02;6.34;70.72
68439;SHT31;55421;51.600;5.718;2023-03-04T01:41:30;6.33;70.79
68439;SHT31;55421;51.600;5.718;2023-03-04T01:43:57;6.30;70.78
68439;SHT31;55421;51.600;5.718;2023-03-04T01:46:28;6.28;70.80
68439;SHT31;55421;51.600;5.718;2023-03-04T01:48:56;6.25;70.80
68439;SHT31;55421;51.600;5.718;2023-03-04T01:51:23;6.23;70.75
68439;SHT31;55421;51.600;5.718;2023-03-04T01:53:50;6.22;70.62
68439;SHT31;55421;51.600;5.718;2023-03-04T01:56:19;6.24;70.59
68439;SHT31;55421;51.600;5.718;2023-03-04T01:59:10;6.26;70.52
68439;SHT31;55421;51.600;5.718;2023-03-04T02:01:41;6.25;70.43
68439;SHT31;55421;51.600;5.718;2023-03-04T02:04:11;6.23;70.44
68439;SHT31;55421;51.600;5.718;2023-03-04T02:06:39;6.20;70.40
68439;SHT31;55421;51.600;5.718;2023-03-04T02:09:07;6.18;70.43
68439;SHT31;55421;51.600;5.718;2023-03-04T02:11:34;6.18;70.50
68439;SHT31;55421;51.600;5.718;2023-03-04T02:14:03;6.20;70.61
68439;SHT31;55421;51.600;5.718;2023-03-04T02:16:32;6.23;70.69
68439;SHT31;55421;51.600;5.718;2023-03-04T02:18:59;6.26;70.77
68439;SHT31;55421;51.600;5.718;2023-03-04T02:21:32;6.26;70.82
68439;SHT31;55421;51.600;5.718;2023-03-04T02:24:09;6.27;70.81
68439;SHT31;55421;51.600;5.718;2023-03-04T02:26:44;6.26;70.81
68439;SHT31;55421;51.600;5.718;2023-03-04T02:29:12;6.23;70.87
68439;SHT31;55421;51.600;5.718;2023-03-04T02:31:45;6.21;70.91
68439;SHT31;55421;51.600;5.718;2023-03-04T02:34:30;6.21;70.92
68439;SHT31;55421;51.600;5.718;2023-03-04T02:37:01;6.22;70.99
68439;SHT31;55421;51.600;5.718;2023-03-04T02:39:33;6.24;71.12
68439;SHT31;55421;51.600;5.718;2023-03-04T02:42:04;6.25;71.21
68439;SHT31;55421;51.600;5.718;2023-03-04T02:44:33;6.25;71.30
68439;SHT31;55421;51.600;5.718;2023-03-04T02:47:14;6.25;71.38
68439;SHT31;55421;51.600;5.718;2023-03-04T02:49:43;6.23;71.47
68439;SHT31;55421;51.600;5.718;2023-03-04T02:52:14;6.21;71.53
68439;SHT31;55421;51.600;5.718;2023-03-04T02:54:46;6.19;71.60
68439;SHT31;55421;51.600;5.718;2023-03-04T02:57:13;6.16;71.61
68439;SHT31;55421;51.600;5.718;2023-03-04T02:59:40;6.15;71.63
68439;SHT31;55421;51.600;5.718;2023-03-04T03:02:07;6.15;71.70
68439;SHT31;55421;51.600;5.718;2023-03-04T03:04:35;6.19;71.70
68439;SHT31;55421;51.600;5.718;2023-03-04T03:07:03;6.20;71.59
68439;SHT31;55421;51.600;5.718;2023-03-04T03:09:31;6.20;71.46
68439;SHT31;55421;51.600;5.718;2023-03-04T03:11:57;6.20;71.40
68439;SHT31;55421;51.600;5.718;2023-03-04T03:14:24;6.19;71.47
68439;SHT31;55421;51.600;5.718;2023-03-04T03:16:50;6.18;71.56
68439;SHT31;55421;51.600;5.718;2023-03-04T03:19:17;6.17;71.67
68439;SHT31;55421;51.600;5.718;2023-03-04T03:21:43;6.16;71.78
68439;SHT31;55421;51.600;5.718;2023-03-04T03:24:10;6.18;71.88
68439;SHT31;55421;51.600;5.718;2023-03-04T03:26:36;6.22;72.00
68439;SHT31;55421;51.600;5.718;2023-03-04T03:29:05;6.24;72.07
68439;SHT31;55421;51.600;5.718;2023-03-04T03:31:34;6.25;72.13
68439;SHT31;55421;51.600;5.718;2023-03-04T03:34:00;6.24;72.17
68439;SHT31;55421;51.600;5.718;2023-03-04T03:36:27;6.24;72.20
68439;SHT31;55421;51.600;5.718;2023-03-04T03:38:53;6.21;72.20
68439;SHT31;55421;51.600;5.718;2023-03-04T03:41:23;6.19;72.21
68439;SHT31;55421;51.600;5.718;2023-03-04T03:43:51;6.17;72.21
68439;SHT31;55421;51.600;5.718;2023-03-04T03:46:18;6.17;72.08
68439;SHT31;55421;51.600;5.718;2023-03-04T03:48:44;6.18;71.91
68439;SHT31;55421;51.600;5.718;2023-03-04T03:51:11;6.17;71.90
68439;SHT31;55421;51.600;5.718;2023-03-04T03:53:37;6.18;71.96
68439;SHT31;55421;51.600;5.718;2023-03-04T03:56:04;6.18;71.89
68439;SHT31;55421;51.600;5.718;2023-03-04T03:58:31;6.16;71.79
68439;SHT31;55421;51.600;5.718;2023-03-04T04:00:57;6.13;71.79
68439;SHT31;55421;51.600;5.718;2023-03-04T04:03:24;6.12;71.80
68439;SHT31;55421;51.600;5.718;2023-03-04T04:05:51;6.13;71.83
68439;SHT31;55421;51.600;5.718;2023-03-04T04:08:17;6.15;71.88
68439;SHT31;55421;51.600;5.718;2023-03-04T04:10:44;6.17;71.83
68439;SHT31;55421;51.600;5.718;2023-03-04T04:13:10;6.18;71.80
68439;SHT31;55421;51.600;5.718;2023-03-04T04:15:37;6.18;71.86
68439;SHT31;55421;51.600;5.718;2023-03-04T04:18:04;6.18;71.88
68439;SHT31;55421;51.600;5.718;2023-03-04T04:20:32;6.17;71.80
68439;SHT31;55421;51.600;5.718;2023-03-04T04:22:59;6.16;71.80
68439;SHT31;55421;51.600;5.718;2023-03-04T04:25:26;6.13;71.80
68439;SHT31;55421;51.600;5.718;2023-03-04T04:27:53;6.11;71.81
68439;SHT31;55421;51.600;5.718;2023-03-04T04:30:19;6.11;71.89
68439;SHT31;55421;51.600;5.718;2023-03-04T04:32:46;6.14;71.86
68439;SHT31;55421;51.600;5.718;2023-03-04T04:35:12;6.17;71.85
68439;SHT31;55421;51.600;5.718;2023-03-04T04:37:39;6.19;71.93
68439;SHT31;55421;51.600;5.718;2023-03-04T04:40:06;6.20;71.93
68439;SHT31;55421;51.600;5.718;2023-03-04T04:42:33;6.22;71.95
68439;SHT31;55421;51.600;5.718;2023-03-04T04:45:01;6.23;72.01
68439;SHT31;55421;51.600;5.718;2023-03-04T04:47:28;6.24;72.04
68439;SHT31;55421;51.600;5.718;2023-03-04T04:49:55;6.23;71.98
68439;SHT31;55421;51.600;5.718;2023-03-04T04:52:21;6.19;71.85
68439;SHT31;55421;51.600;5.718;2023-03-04T04:54:48;6.14;71.80
68439;SHT31;55421;51.600;5.718;2023-03-04T04:57:14;6.13;71.77
68439;SHT31;55421;51.600;5.718;2023-03-04T04:59:41;6.13;71.69
68439;SHT31;55421;51.600;5.718;2023-03-04T05:02:07;6.15;71.63
68439;SHT31;55421;51.600;5.718;2023-03-04T05:04:33;6.15;71.53
68439;SHT31;55421;51.600;5.718;2023-03-04T05:07:00;6.14;71.41
68439;SHT31;55421;51.600;5.718;2023-03-04T05:09:26;6.13;71.23
68439;SHT31;55421;51.600;5.718;2023-03-04T05:11:53;6.11;71.00
68439;SHT31;55421;51.600;5.718;2023-03-04T05:14:19;6.09;70.90
68439;SHT31;55421;51.600;5.718;2023-03-04T05:16:47;6.07;70.81
68439;SHT31;55421;51.600;5.718;2023-03-04T05:19:13;6.05;70.80
68439;SHT31;55421;51.600;5.718;2023-03-04T05:21:40;6.04;70.79
68439;SHT31;55421;51.600;5.718;2023-03-04T05:24:06;6.06;70.80
68439;SHT31;55421;51.600;5.718;2023-03-04T05:26:33;6.09;70.90
68439;SHT31;55421;51.600;5.718;2023-03-04T05:29:00;6.10;70.97
68439;SHT31;55421;51.600;5.718;2023-03-04T05:31:26;6.11;70.99
68439;SHT31;55421;51.600;5.718;2023-03-04T05:33:53;6.11;70.93
68439;SHT31;55421;51.600;5.718;2023-03-04T05:36:19;6.11;70.96
68439;SHT31;55421;51.600;5.718;2023-03-04T05:38:46;6.10;70.91
68439;SHT31;55421;51.600;5.718;2023-03-04T05:41:12;6.06;70.93
68439;SHT31;55421;51.600;5.718;2023-03-04T05:43:39;6.04;71.00
68439;SHT31;55421;51.600;5.718;2023-03-04T05:46:08;6.03;71.05
68439;SHT31;55421;51.600;5.718;2023-03-04T05:48:40;6.05;71.15
68439;SHT31;55421;51.600;5.718;2023-03-04T05:51:08;6.09;71.26
68439;SHT31;55421;51.600;5.718;2023-03-04T05:53:35;6.11;71.32
68439;SHT31;55421;51.600;5.718;2023-03-04T05:56:05;6.12;71.30
68439;SHT31;55421;51.600;5.718;2023-03-04T05:58:37;6.12;71.41
68439;SHT31;55421;51.600;5.718;2023-03-04T06:01:04;6.11;71.61
68439;SHT31;55421;51.600;5.718;2023-03-04T06:03:31;6.07;71.83
68439;SHT31;55421;51.600;5.718;2023-03-04T06:05:58;6.06;71.96
68439;SHT31;55421;51.600;5.718;2023-03-04T06:08:25;6.04;72.07
68439;SHT31;55421;51.600;5.718;2023-03-04T06:10:53;6.04;72.23
68439;SHT31;55421;51.600;5.718;2023-03-04T06:13:22;6.05;72.35
68439;SHT31;55421;51.600;5.718;2023-03-04T06:15:55;6.08;72.46
68439;SHT31;55421;51.600;5.718;2023-03-04T06:18:24;6.07;72.64
68439;SHT31;55421;51.600;5.718;2023-03-04T06:20:56;6.06;72.81
68439;SHT31;55421;51.600;5.718;2023-03-04T06:23:25;6.02;72.98
68439;SHT31;55421;51.600;5.718;2023-03-04T06:25:52;5.99;73.17
68439;SHT31;55421;51.600;5.718;2023-03-04T06:28:21;5.99;73.36
68439;SHT31;55421;51.600;5.718;2023-03-04T06:30:50;5.98;73.47
68439;SHT31;55421;51.600;5.718;2023-03-04T06:33:18;5.97;73.61
68439;SHT31;55421;51.600;5.718;2023-03-04T06:35:45;5.98;73.70
68439;SHT31;55421;51.600;5.718;2023-03-04T06:38:11;6.00;73.81
68439;SHT31;55421;51.600;5.718;2023-03-04T06:40:38;6.01;73.95
68439;SHT31;55421;51.600;5.718;2023-03-04T06:43:05;6.02;74.08
68439;SHT31;55421;51.600;5.718;2023-03-04T06:45:31;6.01;74.20
68439;SHT31;55421;51.600;5.718;2023-03-04T06:47:58;6.02;74.31
68439;SHT31;55421;51.600;5.718;2023-03-04T06:50:24;6.03;74.38
68439;SHT31;55421;51.600;5.718;2023-03-04T06:52:51;6.04;74.48
68439;SHT31;55421;51.600;5.718;2023-03-04T06:55:17;6.06;74.46
68439;SHT31;55421;51.600;5.718;2023-03-04T06:57:44;6.06;74.40
68439;SHT31;55421;51.600;5.718;2023-03-04T07:00:10;6.07;74.30
68439;SHT31;55421;51.600;5.718;2023-03-04T07:02:37;6.07;74.29
68439;SHT31;55421;51.600;5.718;2023-03-04T07:05:04;6.10;74.30
68439;SHT31;55421;51.600;5.718;2023-03-04T07:07:31;6.09;74.31
68439;SHT31;55421;51.600;5.718;2023-03-04T07:09:58;6.10;74.35
68439;SHT31;55421;51.600;5.718;2023-03-04T07:12:24;6.06;74.35
68439;SHT31;55421;51.600;5.718;2023-03-04T07:14:51;6.05;74.41
68439;SHT31;55421;51.600;5.718;2023-03-04T07:17:17;6.04;74.40
68439;SHT31;55421;51.600;5.718;2023-03-04T07:19:43;6.04;74.39
68439;SHT31;55421;51.600;5.718;2023-03-04T07:22:10;6.09;74.42
68439;SHT31;55421;51.600;5.718;2023-03-04T07:24:36;6.16;74.49
68439;SHT31;55421;51.600;5.718;2023-03-04T07:27:03;6.22;74.38
68439;SHT31;55421;51.600;5.718;2023-03-04T07:29:29;6.24;74.32
68439;SHT31;55421;51.600;5.718;2023-03-04T07:31:56;6.28;74.28
68439;SHT31;55421;51.600;5.718;2023-03-04T07:34:22;6.28;74.19
68439;SHT31;55421;51.600;5.718;2023-03-04T07:36:49;6.29;74.22
68439;SHT31;55421;51.600;5.718;2023-03-04T07:39:15;6.30;74.21
68439;SHT31;55421;51.600;5.718;2023-03-04T07:41:45;6.27;74.10
68439;SHT31;55421;51.600;5.718;2023-03-04T07:44:11;6.28;74.18
68439;SHT31;55421;51.600;5.718;2023-03-04T07:46:38;6.28;74.30
68439;SHT31;55421;51.600;5.718;2023-03-04T07:49:05;6.29;74.38
68439;SHT31;55421;51.600;5.718;2023-03-04T07:51:32;6.33;74.40
68439;SHT31;55421;51.600;5.718;2023-03-04T07:54:00;6.37;74.40
68439;SHT31;55421;51.600;5.718;2023-03-04T07:56:28;6.45;74.45
68439;SHT31;55421;51.600;5.718;2023-03-04T07:58:57;6.52;74.44
68439;SHT31;55421;51.600;5.718;2023-03-04T08:01:29;6.57;74.50
68439;SHT31;55421;51.600;5.718;2023-03-04T08:03:59;6.61;74.46
68439;SHT31;55421;51.600;5.718;2023-03-04T08:06:27;6.64;74.50
68439;SHT31;55421;51.600;5.718;2023-03-04T08:08:57;6.67;74.57
68439;SHT31;55421;51.600;5.718;2023-03-04T08:11:27;6.68;74.54
68439;SHT31;55421;51.600;5.718;2023-03-04T08:13:55;6.70;74.57
68439;SHT31;55421;51.600;5.718;2023-03-04T08:16:24;6.72;74.77
68439;SHT31;55421;51.600;5.718;2023-03-04T08:19:01;6.78;74.83
68439;SHT31;55421;51.600;5.718;2023-03-04T08:22:31;6.89;74.75
68439;SHT31;55421;51.600;5.718;2023-03-04T08:25:19;6.98;74.68
68439;SHT31;55421;51.600;5.718;2023-03-04T08:27:50;7.07;74.68
68439;SHT31;55421;51.600;5.718;2023-03-04T08:30:16;7.09;74.62
68439;SHT31;55421;51.600;5.718;2023-03-04T08:32:43;7.12;74.75
68439;SHT31;55421;51.600;5.718;2023-03-04T08:35:09;7.15;74.72
68439;SHT31;55421;51.600;5.718;2023-03-04T08:37:36;7.17;74.88
68439;SHT31;55421;51.600;5.718;2023-03-04T08:40:02;7.17;75.06
68439;SHT31;55421;51.600;5.718;2023-03-04T08:42:31;7.18;75.29
68439;SHT31;55421;51.600;5.718;2023-03-04T08:44:58;7.20;75.49
68439;SHT31;55421;51.600;5.718;2023-03-04T08:47:24;7.23;75.51
68439;SHT31;55421;51.600;5.718;2023-03-04T08:49:51;7.32;75.67
68439;SHT31;55421;51.600;5.718;2023-03-04T08:52:17;7.38;75.62
68439;SHT31;55421;51.600;5.718;2023-03-04T08:54:44;7.42;75.51
68439;SHT31;55421;51.600;5.718;2023-03-04T08:57:10;7.46;75.26
68439;SHT31;55421;51.600;5.718;2023-03-04T08:59:37;7.51;75.04
68439;SHT31;55421;51.600;5.718;2023-03-04T09:02:03;7.54;74.67
68439;SHT31;55421;51.600;5.718;2023-03-04T09:04:30;7.62;74.60
68439;SHT31;55421;51.600;5.718;2023-03-04T09:06:56;7.72;74.62
68439;SHT31;55421;51.600;5.718;2023-03-04T09:09:23;7.77;74.33
68439;SHT31;55421;51.600;5.718;2023-03-04T09:11:50;7.80;74.07
68439;SHT31;55421;51.600;5.718;2023-03-04T09:14:16;7.84;73.93
68439;SHT31;55421;51.600;5.718;2023-03-04T09:16:42;7.87;73.53
68439;SHT31;55421;51.600;5.718;2023-03-04T09:19:10;7.90;73.43
68439;SHT31;55421;51.600;5.718;2023-03-04T09:21:36;7.99;73.36
68439;SHT31;55421;51.600;5.718;2023-03-04T09:24:03;8.11;73.35
68439;SHT31;55421;51.600;5.718;2023-03-04T09:26:30;8.23;73.20
68439;SHT31;55421;51.600;5.718;2023-03-04T09:28:57;8.31;73.05
68439;SHT31;55421;51.600;5.718;2023-03-04T09:31:26;8.35;72.75
68439;SHT31;55421;51.600;5.718;2023-03-04T09:33:54;8.36;72.46
68439;SHT31;55421;51.600;5.718;2023-03-04T09:36:23;8.30;71.95
68439;SHT31;55421;51.600;5.718;2023-03-04T09:38:50;8.25;71.89
68439;SHT31;55421;51.600;5.718;2023-03-04T09:41:18;8.22;71.77
68439;SHT31;55421;51.600;5.718;2023-03-04T09:43:54;8.29;72.02
68439;SHT31;55421;51.600;5.718;2023-03-04T09:46:36;8.46;72.06
68439;SHT31;55421;51.600;5.718;2023-03-04T09:49:05;8.56;71.89
68439;SHT31;55421;51.600;5.718;2023-03-04T09:51:37;8.63;71.97
68439;SHT31;55421;51.600;5.718;2023-03-04T10:00:46;8.70;71.50
68439;SHT31;55421;51.600;5.718;2023-03-04T10:03:40;8.66;71.33
68439;SHT31;55421;51.600;5.718;2023-03-04T10:06:22;8.61;71.25
68439;SHT31;55421;51.600;5.718;2023-03-04T10:08:57;8.54;71.39
68439;SHT31;55421;51.600;5.718;2023-03-04T10:11:36;8.51;71.61
68439;SHT31;55421;51.600;5.718;2023-03-04T10:14:15;8.48;71.59
68439;SHT31;55421;51.600;5.718;2023-03-04T10:19:50;8.35;71.48
68439;SHT31;55421;51.600;5.718;2023-03-04T10:25:20;8.35;72.33
68439;SHT31;55421;51.600;5.718;2023-03-04T10:27:54;8.42;72.28
68439;SHT31;55421;51.600;5.718;2023-03-04T10:33:29;8.54;72.35
68439;SHT31;55421;51.600;5.718;2023-03-04T10:39:00;8.47;72.64
68439;SHT31;55421;51.600;5.718;2023-03-04T10:41:55;8.39;72.42
68439;SHT31;55421;51.600;5.718;2023-03-04T10:44:53;8.28;72.28
68439;SHT31;55421;51.600;5.718;2023-03-04T10:47:24;8.23;72.48
68439;SHT31;55421;51.600;5.718;2023-03-04T10:50:00;8.26;72.79
68439;SHT31;55421;51.600;5.718;2023-03-04T10:52:33;8.32;72.89
68439;SHT31;55421;51.600;5.718;2023-03-04T10:55:05;8.49;72.95
68439;SHT31;55421;51.600;5.718;2023-03-04T10:57:50;8.67;72.94
68439;SHT31;55421;51.600;5.718;2023-03-04T11:00:33;8.84;72.81
68439;SHT31;55421;51.600;5.718;2023-03-04T11:08:56;9.24;72.14
68439;SHT31;55421;51.600;5.718;2023-03-04T11:11:37;9.38;71.76
68439;SHT31;55421;51.600;5.718;2023-03-04T11:14:22;9.41;71.15
68439;SHT31;55421;51.600;5.718;2023-03-04T11:16:57;9.31;70.84
68439;SHT31;55421;51.600;5.718;2023-03-04T11:19:38;9.20;70.78
68439;SHT31;55421;51.600;5.718;2023-03-04T11:22:11;9.17;71.15
68439;SHT31;55421;51.600;5.718;2023-03-04T11:24:43;9.21;71.51
68439;SHT31;55421;51.600;5.718;2023-03-04T11:27:28;9.22;71.32
68439;SHT31;55421;51.600;5.718;2023-03-04T11:33:04;9.40;71.31
68439;SHT31;55421;51.600;5.718;2023-03-04T11:38:31;9.57;70.74
68439;SHT31;55421;51.600;5.718;2023-03-04T11:41:09;9.63;70.78
68439;SHT31;55421;51.600;5.718;2023-03-04T11:43:53;9.69;70.87
68439;SHT31;55421;51.600;5.718;2023-03-04T11:49:44;9.66;70.59
68439;SHT31;55421;51.600;5.718;2023-03-04T11:55:35;9.49;71.04
68439;SHT31;55421;51.600;5.718;2023-03-04T12:01:21;9.60;71.04
68439;SHT31;55421;51.600;5.718;2023-03-04T12:21:58;9.63;70.14
68439;SHT31;55421;51.600;5.718;2023-03-04T12:25:02;9.53;70.37
68439;SHT31;55421;51.600;5.718;2023-03-04T12:33:24;9.35;71.16
68439;SHT31;55421;51.600;5.718;2023-03-04T12:44:36;9.21;72.14
68439;SHT31;55421;51.600;5.718;2023-03-04T12:47:22;9.18;72.04
68439;SHT31;55421;51.600;5.718;2023-03-04T12:56:00;9.03;72.50
68439;SHT31;55421;51.600;5.718;2023-03-04T12:58:30;9.05;72.65
68439;SHT31;55421;51.600;5.718;2023-03-04T13:06:23;8.97;72.76
68439;SHT31;55421;51.600;5.718;2023-03-04T13:11:54;8.87;73.15
68439;SHT31;55421;51.600;5.718;2023-03-04T13:17:42;8.83;73.69
68439;SHT31;55421;51.600;5.718;2023-03-04T13:22:58;8.86;74.05
68439;SHT31;55421;51.600;5.718;2023-03-04T13:25:34;8.86;74.15
68439;SHT31;55421;51.600;5.718;2023-03-04T13:38:29;9.01;75.76
68439;SHT31;55421;51.600;5.718;2023-03-04T13:43:43;9.22;75.55
68439;SHT31;55421;51.600;5.718;2023-03-04T13:49:05;9.35;75.59
68439;SHT31;55421;51.600;5.718;2023-03-04T13:52:26;9.45;75.92
68439;SHT31;55421;51.600;5.718;2023-03-04T13:59:26;9.72;75.05
68439;SHT31;55421;51.600;5.718;2023-03-04T14:02:16;9.87;74.65
68439;SHT31;55421;51.600;5.718;2023-03-04T14:07:27;10.01;74.11
68439;SHT31;55421;51.600;5.718;2023-03-04T14:12:42;10.08;73.69
68439;SHT31;55421;51.600;5.718;2023-03-04T14:15:26;10.02;73.55
68439;SHT31;55421;51.600;5.718;2023-03-04T14:17:56;9.92;73.15
68439;SHT31;55421;51.600;5.718;2023-03-04T14:22:53;9.77;73.11
68439;SHT31;55421;51.600;5.718;2023-03-04T14:25:25;9.75;73.29
68439;SHT31;55421;51.600;5.718;2023-03-04T14:28:10;9.71;73.21
68439;SHT31;55421;51.600;5.718;2023-03-04T14:30:40;9.65;72.87
68439;SHT31;55421;51.600;5.718;2023-03-04T14:33:14;9.62;72.57
68439;SHT31;55421;51.600;5.718;2023-03-04T14:35:52;9.62;72.14
68439;SHT31;55421;51.600;5.718;2023-03-04T14:38:25;9.64;71.94
68439;SHT31;55421;51.600;5.718;2023-03-04T14:43:36;9.61;71.05
68439;SHT31;55421;51.600;5.718;2023-03-04T14:46:11;9.62;70.99
68439;SHT31;55421;51.600;5.718;2023-03-04T14:48:53;9.64;70.79
68439;SHT31;55421;51.600;5.718;2023-03-04T14:51:31;9.66;70.73
68439;SHT31;55421;51.600;5.718;2023-03-04T14:54:21;9.67;70.43
68439;SHT31;55421;51.600;5.718;2023-03-04T14:56:53;9.69;70.53
68439;SHT31;55421;51.600;5.718;2023-03-04T14:59:33;9.70;70.49
68439;SHT31;55421;51.600;5.718;2023-03-04T15:02:34;9.71;70.45
68439;SHT31;55421;51.600;5.718;2023-03-04T15:05:10;9.71;70.17
68439;SHT31;55421;51.600;5.718;2023-03-04T15:07:51;9.70;70.11
68439;SHT31;55421;51.600;5.718;2023-03-04T15:10:23;9.69;70.07
68439;SHT31;55421;51.600;5.718;2023-03-04T15:12:55;9.64;70.00
68439;SHT31;55421;51.600;5.718;2023-03-04T15:15:34;9.56;69.94
68439;SHT31;55421;51.600;5.718;2023-03-04T15:18:25;9.45;69.79
68439;SHT31;55421;51.600;5.718;2023-03-04T15:20:56;9.33;69.69
68439;SHT31;55421;51.600;5.718;2023-03-04T15:23:31;9.21;69.64
68439;SHT31;55421;51.600;5.718;2023-03-04T15:25:59;9.11;69.68
68439;SHT31;55421;51.600;5.718;2023-03-04T15:28:31;9.04;69.72
68439;SHT31;55421;51.600;5.718;2023-03-04T15:31:02;9.00;69.85
68439;SHT31;55421;51.600;5.718;2023-03-04T15:33:32;8.95;70.08
68439;SHT31;55421;51.600;5.718;2023-03-04T15:35:59;8.92;70.22
68439;SHT31;55421;51.600;5.718;2023-03-04T15:38:28;8.88;70.07
68439;SHT31;55421;51.600;5.718;2023-03-04T15:40:55;8.83;70.13
68439;SHT31;55421;51.600;5.718;2023-03-04T15:43:23;8.81;70.06
68439;SHT31;55421;51.600;5.718;2023-03-04T15:45:50;8.77;69.79
68439;SHT31;55421;51.600;5.718;2023-03-04T15:48:18;8.74;69.60
68439;SHT31;55421;51.600;5.718;2023-03-04T15:50:55;8.70;69.41
68439;SHT31;55421;51.600;5.718;2023-03-04T15:53:27;8.67;69.11
68439;SHT31;55421;51.600;5.718;2023-03-04T15:56:00;8.65;68.97
68439;SHT31;55421;51.600;5.718;2023-03-04T15:58:30;8.62;69.03
68439;SHT31;55421;51.600;5.718;2023-03-04T16:00:57;8.59;68.31
68439;SHT31;55421;51.600;5.718;2023-03-04T16:03:24;8.52;68.40
68439;SHT31;55421;51.600;5.718;2023-03-04T16:05:50;8.49;68.43
68439;SHT31;55421;51.600;5.718;2023-03-04T16:08:18;8.45;68.10
68439;SHT31;55421;51.600;5.718;2023-03-04T16:10:50;8.38;67.57
68439;SHT31;55421;51.600;5.718;2023-03-04T16:13:18;8.32;67.86
68439;SHT31;55421;51.600;5.718;2023-03-04T16:15:48;8.29;67.88
68439;SHT31;55421;51.600;5.718;2023-03-04T16:18:15;8.25;67.77
68439;SHT31;55421;51.600;5.718;2023-03-04T16:20:43;8.21;67.87
68439;SHT31;55421;51.600;5.718;2023-03-04T16:23:20;8.19;67.90
68439;SHT31;55421;51.600;5.718;2023-03-04T16:25:51;8.20;67.97
68439;SHT31;55421;51.600;5.718;2023-03-04T16:28:21;8.22;68.10
68439;SHT31;55421;51.600;5.718;2023-03-04T16:30:48;8.25;68.10
68439;SHT31;55421;51.600;5.718;2023-03-04T16:33:15;8.26;67.98
68439;SHT31;55421;51.600;5.718;2023-03-04T16:35:42;8.27;67.91
68439;SHT31;55421;51.600;5.718;2023-03-04T16:38:29;8.26;67.67
68439;SHT31;55421;51.600;5.718;2023-03-04T16:40:59;8.23;67.24
68439;SHT31;55421;51.600;5.718;2023-03-04T16:43:29;8.21;67.13
68439;SHT31;55421;51.600;5.718;2023-03-04T16:45:56;8.19;67.15
68439;SHT31;55421;51.600;5.718;2023-03-04T16:48:23;8.18;67.26
68439;SHT31;55421;51.600;5.718;2023-03-04T16:50:49;8.15;67.12
68439;SHT31;55421;51.600;5.718;2023-03-04T16:53:20;8.11;66.99
68439;SHT31;55421;51.600;5.718;2023-03-04T16:56:05;8.07;66.86
68439;SHT31;55421;51.600;5.718;2023-03-04T16:58:37;8.04;66.87
68439;SHT31;55421;51.600;5.718;2023-03-04T17:01:04;8.05;67.14
68439;SHT31;55421;51.600;5.718;2023-03-04T17:03:31;8.06;67.11
68439;SHT31;55421;51.600;5.718;2023-03-04T17:05:58;8.07;67.14
68439;SHT31;55421;51.600;5.718;2023-03-04T17:08:24;8.07;67.20
68439;SHT31;55421;51.600;5.718;2023-03-04T17:10:51;8.04;67.16
68439;SHT31;55421;51.600;5.718;2023-03-04T17:13:17;8.00;67.24
68439;SHT31;55421;51.600;5.718;2023-03-04T17:15:44;7.94;67.41
68439;SHT31;55421;51.600;5.718;2023-03-04T17:18:11;7.91;67.61
68439;SHT31;55421;51.600;5.718;2023-03-04T17:20:38;7.86;67.77
68439;SHT31;55421;51.600;5.718;2023-03-04T17:23:05;7.80;67.81
68439;SHT31;55421;51.600;5.718;2023-03-04T17:25:32;7.76;67.74
68439;SHT31;55421;51.600;5.718;2023-03-04T17:27:58;7.73;67.83
68439;SHT31;55421;51.600;5.718;2023-03-04T17:30:25;7.72;67.94
68439;SHT31;55421;51.600;5.718;2023-03-04T17:32:51;7.71;67.79
68439;SHT31;55421;51.600;5.718;2023-03-04T17:35:18;7.69;67.51
68439;SHT31;55421;51.600;5.718;2023-03-04T17:37:45;7.66;67.26
68439;SHT31;55421;51.600;5.718;2023-03-04T17:40:11;7.62;67.03
68439;SHT31;55421;51.600;5.718;2023-03-04T17:42:40;7.58;66.94
68439;SHT31;55421;51.600;5.718;2023-03-04T17:45:08;7.54;66.62
68439;SHT31;55421;51.600;5.718;2023-03-04T17:47:36;7.51;66.31
68439;SHT31;55421;51.600;5.718;2023-03-04T17:50:03;7.50;66.17
68439;SHT31;55421;51.600;5.718;2023-03-04T17:52:32;7.49;66.29
68439;SHT31;55421;51.600;5.718;2023-03-04T17:54:59;7.48;66.31
68439;SHT31;55421;51.600;5.718;2023-03-04T17:57:25;7.46;66.46
68439;SHT31;55421;51.600;5.718;2023-03-04T17:59:51;7.45;66.54
68439;SHT31;55421;51.600;5.718;2023-03-04T18:02:18;7.46;66.58
68439;SHT31;55421;51.600;5.718;2023-03-04T18:04:44;7.48;66.77
68439;SHT31;55421;51.600;5.718;2023-03-04T18:07:13;7.51;66.75